עמוד ראשי
METAR-TAF:

METAR-TAF

שדות תעופה :

בנדר עבאס, איראן

קו רוחב: 27-13N, קו אורך: 056-22E, גובה: 10מטר

תצפית מזג אוויר נוכחית

הדו"ח נערך לפני 27דקות, בשעה 19:30 UTC
רוח 6קשר מכיוון מזרח
טמפרטורת 33 צלסיוס
לחות 71%
לחץ 999 hPa
ראות: 4000מטר
אובך,

METAR: OIKB 131930Z 09006KT 4000 HZ NSC 33/27 Q0999 A2950

זמן: 00:27 (19:57 UTC)

תחזית

הדו"ח נערך לפני 2 שעות ו 27דקות, בשעה 17:30 UTC
תחזית בתוקף מ 13 ב 18 UTC עד 14 ב 24 UTC
רוח 6קשר מכיוון צפון/צפון-מזרח
ראות: 3000מטר
מעט עננים בגובה 3000רגל
אובך
זמנית מ -
13 ב 22 UTC עד 14 ב 05 UTC
ראות: 2000מטר
אובך
יעשה מ
14 ב 05 UTC עד 14 ב 07 UTC
רוח 7קשר מכיוון דרום/דרום-מערב
זמנית מ -
14 ב 09 UTC עד 14 ב 15 UTC
רוח 17קשר מכיוון מערב/דרום-מערב
יעשה מ
14 ב 19 UTC עד 14 ב 21 UTC
רוח 6קשר מכיוון צפון/צפון-מזרח

TAF: OIKB 131730Z 1318/1424 03006KT 3000 HZ FEW030 TEMPO 1322/1405 2000 HZ BECMG 1405/1407 21007KT TEMPO 1409/1415 24017KT BECMG 1419/1421 03006KT

תצפיות ותחזיות מזג אוויר לגבי יותר מ- 4,000 שדות תעופה ברחבי העולם. דוחות METAR ו- TAF.

התחנות הזמינות מסומנות בנקודות צהובות ואדומות על גבי המפה.

העבר את העכבר לנקודה הצבעונית על מנת לראות את שם התחנה.

לאחר מכן, לחץ כדי לראות את תוכן ואת תחזיות מזג האוויר.

כדי לשנות את המפה: לחץ על הכפתורים הירוקים עם הפלוס השחור כדי להתקרב; על הכפתור הירוק עם המקף כדי להתרחק; או בחיצים הירוקים למפות סמוכות.


METAR-TAF: